sensor_id;sensor_type;location;lat;lon;timestamp;temperature;humidity
44111;DHT22;29774;52.664;5.074;2023-08-12T00:00:08;23.10;70.70
44111;DHT22;29774;52.664;5.074;2023-08-12T00:02:44;22.70;71.30
44111;DHT22;29774;52.664;5.074;2023-08-12T00:05:10;22.40;72.60
44111;DHT22;29774;52.664;5.074;2023-08-12T00:07:36;22.00;73.90
44111;DHT22;29774;52.664;5.074;2023-08-12T00:10:03;22.00;74.20
44111;DHT22;29774;52.664;5.074;2023-08-12T00:12:33;21.90;74.40
44111;DHT22;29774;52.664;5.074;2023-08-12T00:14:59;22.20;73.80
44111;DHT22;29774;52.664;5.074;2023-08-12T00:17:25;22.10;73.80
44111;DHT22;29774;52.664;5.074;2023-08-12T00:19:50;22.20;73.90
44111;DHT22;29774;52.664;5.074;2023-08-12T00:22:16;21.90;74.60
44111;DHT22;29774;52.664;5.074;2023-08-12T00:24:42;22.00;74.20
44111;DHT22;29774;52.664;5.074;2023-08-12T00:27:08;22.00;74.40
44111;DHT22;29774;52.664;5.074;2023-08-12T00:29:34;21.80;75.00
44111;DHT22;29774;52.664;5.074;2023-08-12T00:32:00;21.60;75.70
44111;DHT22;29774;52.664;5.074;2023-08-12T00:34:26;21.40;76.40
44111;DHT22;29774;52.664;5.074;2023-08-12T00:36:52;21.30;76.60
44111;DHT22;29774;52.664;5.074;2023-08-12T00:39:18;21.40;76.80
44111;DHT22;29774;52.664;5.074;2023-08-12T00:41:43;21.40;76.50
44111;DHT22;29774;52.664;5.074;2023-08-12T00:44:09;21.40;76.80
44111;DHT22;29774;52.664;5.074;2023-08-12T00:46:35;21.30;77.30
44111;DHT22;29774;52.664;5.074;2023-08-12T00:49:01;21.50;76.30
44111;DHT22;29774;52.664;5.074;2023-08-12T00:51:27;21.50;76.20
44111;DHT22;29774;52.664;5.074;2023-08-12T00:53:54;21.70;75.60
44111;DHT22;29774;52.664;5.074;2023-08-12T00:56:21;21.80;75.40
44111;DHT22;29774;52.664;5.074;2023-08-12T00:58:47;21.90;74.90
44111;DHT22;29774;52.664;5.074;2023-08-12T01:01:13;21.90;74.80
44111;DHT22;29774;52.664;5.074;2023-08-12T01:03:39;21.90;74.80
44111;DHT22;29774;52.664;5.074;2023-08-12T01:06:05;22.00;74.50
44111;DHT22;29774;52.664;5.074;2023-08-12T01:08:32;22.30;73.60
44111;DHT22;29774;52.664;5.074;2023-08-12T01:11:14;22.40;73.00
44111;DHT22;29774;52.664;5.074;2023-08-12T01:16:31;22.30;72.90
44111;DHT22;29774;52.664;5.074;2023-08-12T01:18:59;22.20;73.60
44111;DHT22;29774;52.664;5.074;2023-08-12T01:21:28;22.30;73.00
44111;DHT22;29774;52.664;5.074;2023-08-12T01:23:55;22.20;73.40
44111;DHT22;29774;52.664;5.074;2023-08-12T01:26:21;22.20;73.80
44111;DHT22;29774;52.664;5.074;2023-08-12T01:28:46;22.10;74.10
44111;DHT22;29774;52.664;5.074;2023-08-12T01:31:16;21.90;74.50
44111;DHT22;29774;52.664;5.074;2023-08-12T01:33:52;21.70;75.50
44111;DHT22;29774;52.664;5.074;2023-08-12T01:36:20;21.70;75.50
44111;DHT22;29774;52.664;5.074;2023-08-12T01:38:51;21.80;75.20
44111;DHT22;29774;52.664;5.074;2023-08-12T01:41:18;21.70;75.40
44111;DHT22;29774;52.664;5.074;2023-08-12T01:43:46;21.70;75.30
44111;DHT22;29774;52.664;5.074;2023-08-12T01:46:12;21.70;75.50
44111;DHT22;29774;52.664;5.074;2023-08-12T01:48:37;21.80;75.20
44111;DHT22;29774;52.664;5.074;2023-08-12T01:51:03;21.70;75.80
44111;DHT22;29774;52.664;5.074;2023-08-12T01:53:30;21.80;75.20
44111;DHT22;29774;52.664;5.074;2023-08-12T01:55:55;21.70;75.60
44111;DHT22;29774;52.664;5.074;2023-08-12T01:58:21;21.90;75.00
44111;DHT22;29774;52.664;5.074;2023-08-12T02:00:46;21.80;75.20
44111;DHT22;29774;52.664;5.074;2023-08-12T02:03:12;21.70;75.70
44111;DHT22;29774;52.664;5.074;2023-08-12T02:05:38;21.70;75.60
44111;DHT22;29774;52.664;5.074;2023-08-12T02:08:06;21.90;75.00
44111;DHT22;29774;52.664;5.074;2023-08-12T02:10:32;21.90;75.00
44111;DHT22;29774;52.664;5.074;2023-08-12T02:12:57;22.00;74.50
44111;DHT22;29774;52.664;5.074;2023-08-12T02:15:23;21.80;75.20
44111;DHT22;29774;52.664;5.074;2023-08-12T02:17:49;21.70;75.50
44111;DHT22;29774;52.664;5.074;2023-08-12T02:20:14;21.80;74.90
44111;DHT22;29774;52.664;5.074;2023-08-12T02:22:40;22.00;74.50
44111;DHT22;29774;52.664;5.074;2023-08-12T02:25:06;21.90;74.60
44111;DHT22;29774;52.664;5.074;2023-08-12T02:27:31;21.90;75.00
44111;DHT22;29774;52.664;5.074;2023-08-12T02:29:57;21.80;75.10
44111;DHT22;29774;52.664;5.074;2023-08-12T02:32:22;21.80;75.30
44111;DHT22;29774;52.664;5.074;2023-08-12T02:34:48;21.70;75.70
44111;DHT22;29774;52.664;5.074;2023-08-12T02:37:14;21.70;75.80
44111;DHT22;29774;52.664;5.074;2023-08-12T02:39:39;21.80;75.40
44111;DHT22;29774;52.664;5.074;2023-08-12T02:42:05;21.90;75.30
44111;DHT22;29774;52.664;5.074;2023-08-12T02:44:30;22.10;74.50
44111;DHT22;29774;52.664;5.074;2023-08-12T02:46:56;22.30;73.90
44111;DHT22;29774;52.664;5.074;2023-08-12T02:49:22;22.20;74.00
44111;DHT22;29774;52.664;5.074;2023-08-12T02:51:47;22.00;74.60
44111;DHT22;29774;52.664;5.074;2023-08-12T02:54:13;22.20;73.80
44111;DHT22;29774;52.664;5.074;2023-08-12T02:56:38;22.30;73.70
44111;DHT22;29774;52.664;5.074;2023-08-12T02:59:04;22.30;73.50
44111;DHT22;29774;52.664;5.074;2023-08-12T03:01:30;22.40;73.30
44111;DHT22;29774;52.664;5.074;2023-08-12T03:03:55;22.50;72.90
44111;DHT22;29774;52.664;5.074;2023-08-12T03:06:21;22.60;72.50
44111;DHT22;29774;52.664;5.074;2023-08-12T03:08:47;22.30;73.30
44111;DHT22;29774;52.664;5.074;2023-08-12T03:11:12;22.30;73.70
44111;DHT22;29774;52.664;5.074;2023-08-12T03:13:38;22.40;73.50
44111;DHT22;29774;52.664;5.074;2023-08-12T03:16:03;22.20;73.80
44111;DHT22;29774;52.664;5.074;2023-08-12T03:18:29;22.30;73.60
44111;DHT22;29774;52.664;5.074;2023-08-12T03:20:55;22.10;74.70
44111;DHT22;29774;52.664;5.074;2023-08-12T03:23:20;22.00;75.30
44111;DHT22;29774;52.664;5.074;2023-08-12T03:25:49;22.00;74.90
44111;DHT22;29774;52.664;5.074;2023-08-12T03:28:16;22.30;73.90
44111;DHT22;29774;52.664;5.074;2023-08-12T03:30:41;22.30;73.50
44111;DHT22;29774;52.664;5.074;2023-08-12T03:33:07;22.30;73.90
44111;DHT22;29774;52.664;5.074;2023-08-12T03:35:33;22.30;73.80
44111;DHT22;29774;52.664;5.074;2023-08-12T03:37:58;22.40;73.60
44111;DHT22;29774;52.664;5.074;2023-08-12T03:40:24;22.20;74.20
44111;DHT22;29774;52.664;5.074;2023-08-12T03:42:49;22.40;74.00
44111;DHT22;29774;52.664;5.074;2023-08-12T03:45:15;22.40;73.50
44111;DHT22;29774;52.664;5.074;2023-08-12T03:47:40;22.50;73.10
44111;DHT22;29774;52.664;5.074;2023-08-12T03:50:06;22.50;73.10
44111;DHT22;29774;52.664;5.074;2023-08-12T03:52:32;22.50;73.40
44111;DHT22;29774;52.664;5.074;2023-08-12T03:54:58;22.50;73.10
44111;DHT22;29774;52.664;5.074;2023-08-12T03:57:23;22.60;73.20
44111;DHT22;29774;52.664;5.074;2023-08-12T03:59:49;22.20;74.50
44111;DHT22;29774;52.664;5.074;2023-08-12T04:02:14;22.30;74.30
44111;DHT22;29774;52.664;5.074;2023-08-12T04:04:40;22.50;73.50
44111;DHT22;29774;52.664;5.074;2023-08-12T04:07:08;22.50;73.50
44111;DHT22;29774;52.664;5.074;2023-08-12T04:09:33;22.40;73.50
44111;DHT22;29774;52.664;5.074;2023-08-12T04:11:59;22.50;73.50
44111;DHT22;29774;52.664;5.074;2023-08-12T04:14:25;22.40;73.80
44111;DHT22;29774;52.664;5.074;2023-08-12T04:16:50;22.20;74.40
44111;DHT22;29774;52.664;5.074;2023-08-12T04:19:16;22.20;74.90
44111;DHT22;29774;52.664;5.074;2023-08-12T04:21:42;22.20;74.50
44111;DHT22;29774;52.664;5.074;2023-08-12T04:24:11;22.20;75.30
44111;DHT22;29774;52.664;5.074;2023-08-12T04:26:37;22.30;74.70
44111;DHT22;29774;52.664;5.074;2023-08-12T04:29:02;22.40;73.70
44111;DHT22;29774;52.664;5.074;2023-08-12T04:31:28;22.50;73.70
44111;DHT22;29774;52.664;5.074;2023-08-12T04:33:53;22.30;74.10
44111;DHT22;29774;52.664;5.074;2023-08-12T04:36:19;22.30;74.50
44111;DHT22;29774;52.664;5.074;2023-08-12T04:38:45;22.40;74.00
44111;DHT22;29774;52.664;5.074;2023-08-12T04:41:10;22.40;74.10
44111;DHT22;29774;52.664;5.074;2023-08-12T04:43:36;22.40;74.20
44111;DHT22;29774;52.664;5.074;2023-08-12T04:46:02;22.50;74.00
44111;DHT22;29774;52.664;5.074;2023-08-12T04:48:27;22.50;73.70
44111;DHT22;29774;52.664;5.074;2023-08-12T04:50:53;22.70;73.10
44111;DHT22;29774;52.664;5.074;2023-08-12T04:53:19;22.50;73.90
44111;DHT22;29774;52.664;5.074;2023-08-12T04:55:45;22.50;73.50
44111;DHT22;29774;52.664;5.074;2023-08-12T04:58:14;22.30;75.20
44111;DHT22;29774;52.664;5.074;2023-08-12T05:00:40;22.20;75.30
44111;DHT22;29774;52.664;5.074;2023-08-12T05:03:06;22.00;76.20
44111;DHT22;29774;52.664;5.074;2023-08-12T05:05:31;22.00;76.20
44111;DHT22;29774;52.664;5.074;2023-08-12T05:07:57;22.00;75.90
44111;DHT22;29774;52.664;5.074;2023-08-12T05:10:23;22.00;76.00
44111;DHT22;29774;52.664;5.074;2023-08-12T05:12:48;22.10;75.80
44111;DHT22;29774;52.664;5.074;2023-08-12T05:15:15;22.10;75.80
44111;DHT22;29774;52.664;5.074;2023-08-12T05:17:41;22.20;75.70
44111;DHT22;29774;52.664;5.074;2023-08-12T05:20:07;22.20;75.10
44111;DHT22;29774;52.664;5.074;2023-08-12T05:22:33;22.30;75.40
44111;DHT22;29774;52.664;5.074;2023-08-12T05:24:59;22.30;74.80
44111;DHT22;29774;52.664;5.074;2023-08-12T05:27:24;22.20;75.50
44111;DHT22;29774;52.664;5.074;2023-08-12T05:29:50;22.20;76.00
44111;DHT22;29774;52.664;5.074;2023-08-12T05:32:16;22.10;76.00
44111;DHT22;29774;52.664;5.074;2023-08-12T05:34:41;21.90;77.30
44111;DHT22;29774;52.664;5.074;2023-08-12T05:37:07;21.90;77.00
44111;DHT22;29774;52.664;5.074;2023-08-12T05:39:33;22.00;76.00
44111;DHT22;29774;52.664;5.074;2023-08-12T05:41:58;22.20;75.20
44111;DHT22;29774;52.664;5.074;2023-08-12T05:44:24;22.30;74.90
44111;DHT22;29774;52.664;5.074;2023-08-12T05:46:49;22.70;73.90
44111;DHT22;29774;52.664;5.074;2023-08-12T05:49:15;22.60;73.60
44111;DHT22;29774;52.664;5.074;2023-08-12T05:51:41;22.60;73.90
44111;DHT22;29774;52.664;5.074;2023-08-12T05:54:07;22.60;74.00
44111;DHT22;29774;52.664;5.074;2023-08-12T05:56:32;22.50;74.20
44111;DHT22;29774;52.664;5.074;2023-08-12T05:58:58;22.30;75.00
44111;DHT22;29774;52.664;5.074;2023-08-12T06:01:23;22.30;75.00
44111;DHT22;29774;52.664;5.074;2023-08-12T06:03:49;22.10;76.30
44111;DHT22;29774;52.664;5.074;2023-08-12T06:06:14;22.00;76.80
44111;DHT22;29774;52.664;5.074;2023-08-12T06:08:40;22.10;76.20
44111;DHT22;29774;52.664;5.074;2023-08-12T06:11:06;22.00;77.20
44111;DHT22;29774;52.664;5.074;2023-08-12T06:13:31;22.00;76.30
44111;DHT22;29774;52.664;5.074;2023-08-12T06:15:57;22.20;76.00
44111;DHT22;29774;52.664;5.074;2023-08-12T06:18:23;22.30;75.50
44111;DHT22;29774;52.664;5.074;2023-08-12T06:20:48;22.20;75.70
44111;DHT22;29774;52.664;5.074;2023-08-12T06:23:15;22.10;76.40
44111;DHT22;29774;52.664;5.074;2023-08-12T06:25:41;22.00;76.50
44111;DHT22;29774;52.664;5.074;2023-08-12T06:28:08;22.10;76.30
44111;DHT22;29774;52.664;5.074;2023-08-12T06:30:34;22.20;75.90
44111;DHT22;29774;52.664;5.074;2023-08-12T06:33:00;22.30;75.40
44111;DHT22;29774;52.664;5.074;2023-08-12T06:35:25;22.50;74.50
44111;DHT22;29774;52.664;5.074;2023-08-12T06:37:51;22.50;74.50
44111;DHT22;29774;52.664;5.074;2023-08-12T06:40:17;22.50;75.00
44111;DHT22;29774;52.664;5.074;2023-08-12T06:42:42;22.30;75.40
44111;DHT22;29774;52.664;5.074;2023-08-12T06:45:08;22.30;74.90
44111;DHT22;29774;52.664;5.074;2023-08-12T06:47:34;22.60;74.20
44111;DHT22;29774;52.664;5.074;2023-08-12T06:50:00;22.60;74.20
44111;DHT22;29774;52.664;5.074;2023-08-12T06:52:25;22.70;73.80
44111;DHT22;29774;52.664;5.074;2023-08-12T06:54:51;22.60;74.30
44111;DHT22;29774;52.664;5.074;2023-08-12T06:57:17;22.60;74.30
44111;DHT22;29774;52.664;5.074;2023-08-12T06:59:42;22.50;74.50
44111;DHT22;29774;52.664;5.074;2023-08-12T07:02:08;22.30;75.10
44111;DHT22;29774;52.664;5.074;2023-08-12T07:04:33;22.70;73.90
44111;DHT22;29774;52.664;5.074;2023-08-12T07:07:00;22.70;73.50
44111;DHT22;29774;52.664;5.074;2023-08-12T07:09:25;22.80;73.30
44111;DHT22;29774;52.664;5.074;2023-08-12T07:11:51;22.40;74.70
44111;DHT22;29774;52.664;5.074;2023-08-12T07:14:16;22.40;74.80
44111;DHT22;29774;52.664;5.074;2023-08-12T07:16:42;22.60;74.70
44111;DHT22;29774;52.664;5.074;2023-08-12T07:19:08;22.50;74.70
44111;DHT22;29774;52.664;5.074;2023-08-12T07:21:33;22.40;75.10
44111;DHT22;29774;52.664;5.074;2023-08-12T07:23:59;22.30;75.50
44111;DHT22;29774;52.664;5.074;2023-08-12T07:26:25;22.40;75.40
44111;DHT22;29774;52.664;5.074;2023-08-12T07:28:50;22.60;74.50
44111;DHT22;29774;52.664;5.074;2023-08-12T07:31:16;22.60;74.90
44111;DHT22;29774;52.664;5.074;2023-08-12T07:33:42;22.40;74.80
44111;DHT22;29774;52.664;5.074;2023-08-12T07:36:08;22.30;75.40
44111;DHT22;29774;52.664;5.074;2023-08-12T07:38:33;22.20;76.40
44111;DHT22;29774;52.664;5.074;2023-08-12T07:41:00;22.20;76.40
44111;DHT22;29774;52.664;5.074;2023-08-12T07:43:26;22.10;77.00
44111;DHT22;29774;52.664;5.074;2023-08-12T07:45:54;22.10;77.00
44111;DHT22;29774;52.664;5.074;2023-08-12T07:48:21;22.30;76.20
44111;DHT22;29774;52.664;5.074;2023-08-12T07:50:47;22.30;75.90
44111;DHT22;29774;52.664;5.074;2023-08-12T07:53:15;22.60;74.80
44111;DHT22;29774;52.664;5.074;2023-08-12T07:55:42;23.00;73.60
44111;DHT22;29774;52.664;5.074;2023-08-12T07:58:08;23.10;72.70
44111;DHT22;29774;52.664;5.074;2023-08-12T08:00:33;23.20;72.40
44111;DHT22;29774;52.664;5.074;2023-08-12T08:02:59;23.20;72.20
44111;DHT22;29774;52.664;5.074;2023-08-12T08:05:25;23.00;72.60
44111;DHT22;29774;52.664;5.074;2023-08-12T08:07:50;23.10;72.50
44111;DHT22;29774;52.664;5.074;2023-08-12T08:10:16;23.10;72.30
44111;DHT22;29774;52.664;5.074;2023-08-12T08:12:42;23.20;72.10
44111;DHT22;29774;52.664;5.074;2023-08-12T08:15:07;23.20;72.10
44111;DHT22;29774;52.664;5.074;2023-08-12T08:17:33;23.10;72.20
44111;DHT22;29774;52.664;5.074;2023-08-12T08:19:59;23.20;72.00
44111;DHT22;29774;52.664;5.074;2023-08-12T08:22:25;23.20;72.10
44111;DHT22;29774;52.664;5.074;2023-08-12T08:24:51;23.10;72.20
44111;DHT22;29774;52.664;5.074;2023-08-12T08:27:16;22.80;73.00
44111;DHT22;29774;52.664;5.074;2023-08-12T08:29:42;22.90;72.80
44111;DHT22;29774;52.664;5.074;2023-08-12T08:32:08;22.90;72.90
44111;DHT22;29774;52.664;5.074;2023-08-12T08:34:34;22.90;72.70
44111;DHT22;29774;52.664;5.074;2023-08-12T08:36:59;22.70;73.20
44111;DHT22;29774;52.664;5.074;2023-08-12T08:39:25;22.70;73.10
44111;DHT22;29774;52.664;5.074;2023-08-12T08:41:54;22.70;73.00
44111;DHT22;29774;52.664;5.074;2023-08-12T08:44:22;22.40;73.70
44111;DHT22;29774;52.664;5.074;2023-08-12T08:46:52;22.40;74.10
44111;DHT22;29774;52.664;5.074;2023-08-12T08:49:18;22.50;73.90
44111;DHT22;29774;52.664;5.074;2023-08-12T08:51:46;22.40;73.50
44111;DHT22;29774;52.664;5.074;2023-08-12T08:54:12;22.00;74.80
44111;DHT22;29774;52.664;5.074;2023-08-12T08:56:39;22.10;74.90
44111;DHT22;29774;52.664;5.074;2023-08-12T08:59:04;22.40;73.50
44111;DHT22;29774;52.664;5.074;2023-08-12T09:01:31;22.30;74.30
44111;DHT22;29774;52.664;5.074;2023-08-12T09:03:57;22.20;74.50
44111;DHT22;29774;52.664;5.074;2023-08-12T09:06:26;22.20;74.40
44111;DHT22;29774;52.664;5.074;2023-08-12T09:08:54;22.20;74.20
44111;DHT22;29774;52.664;5.074;2023-08-12T09:11:20;21.90;74.60
44111;DHT22;29774;52.664;5.074;2023-08-12T09:13:47;22.20;74.20
44111;DHT22;29774;52.664;5.074;2023-08-12T09:16:13;22.40;73.30
44111;DHT22;29774;52.664;5.074;2023-08-12T09:18:40;22.60;72.50
44111;DHT22;29774;52.664;5.074;2023-08-12T09:21:08;22.70;72.10
44111;DHT22;29774;52.664;5.074;2023-08-12T09:23:43;22.70;71.90
44111;DHT22;29774;52.664;5.074;2023-08-12T09:26:18;22.80;71.50
44111;DHT22;29774;52.664;5.074;2023-08-12T09:28:45;22.80;71.40
44111;DHT22;29774;52.664;5.074;2023-08-12T09:31:28;22.70;71.70
44111;DHT22;29774;52.664;5.074;2023-08-12T09:34:05;22.70;71.60
44111;DHT22;29774;52.664;5.074;2023-08-12T09:36:33;22.80;71.30
44111;DHT22;29774;52.664;5.074;2023-08-12T09:38:59;22.80;72.60
44111;DHT22;29774;52.664;5.074;2023-08-12T09:41:26;22.80;72.40
44111;DHT22;29774;52.664;5.074;2023-08-12T09:43:52;22.80;72.20
44111;DHT22;29774;52.664;5.074;2023-08-12T09:46:22;22.80;72.00
44111;DHT22;29774;52.664;5.074;2023-08-12T09:48:52;22.80;71.80
44111;DHT22;29774;52.664;5.074;2023-08-12T09:51:20;22.90;71.70
44111;DHT22;29774;52.664;5.074;2023-08-12T09:53:49;22.80;71.60
44111;DHT22;29774;52.664;5.074;2023-08-12T09:56:18;22.80;71.50
44111;DHT22;29774;52.664;5.074;2023-08-12T09:58:48;22.80;71.70
44111;DHT22;29774;52.664;5.074;2023-08-12T10:01:13;22.80;71.50
44111;DHT22;29774;52.664;5.074;2023-08-12T10:03:42;22.90;71.30
44111;DHT22;29774;52.664;5.074;2023-08-12T10:06:12;22.90;71.30
44111;DHT22;29774;52.664;5.074;2023-08-12T10:08:37;22.90;71.20
44111;DHT22;29774;52.664;5.074;2023-08-12T10:11:03;23.00;71.30
44111;DHT22;29774;52.664;5.074;2023-08-12T10:13:29;22.90;71.20
44111;DHT22;29774;52.664;5.074;2023-08-12T10:15:55;22.90;71.20
44111;DHT22;29774;52.664;5.074;2023-08-12T10:18:22;22.90;71.20
44111;DHT22;29774;52.664;5.074;2023-08-12T10:20:49;22.90;71.30
44111;DHT22;29774;52.664;5.074;2023-08-12T10:23:17;22.90;71.30
44111;DHT22;29774;52.664;5.074;2023-08-12T10:25:44;22.90;71.40
44111;DHT22;29774;52.664;5.074;2023-08-12T10:28:11;22.80;71.40
44111;DHT22;29774;52.664;5.074;2023-08-12T10:30:37;22.80;71.30
44111;DHT22;29774;52.664;5.074;2023-08-12T10:33:04;22.80;71.40
44111;DHT22;29774;52.664;5.074;2023-08-12T10:35:42;22.80;71.50
44111;DHT22;29774;52.664;5.074;2023-08-12T10:38:08;22.80;71.60
44111;DHT22;29774;52.664;5.074;2023-08-12T10:40:34;22.80;71.90
44111;DHT22;29774;52.664;5.074;2023-08-12T10:42:59;22.90;71.60
44111;DHT22;29774;52.664;5.074;2023-08-12T10:45:42;22.90;71.40
44111;DHT22;29774;52.664;5.074;2023-08-12T10:50:34;23.00;71.20
44111;DHT22;29774;52.664;5.074;2023-08-12T10:53:29;23.00;70.90
44111;DHT22;29774;52.664;5.074;2023-08-12T10:55:59;23.00;71.00
44111;DHT22;29774;52.664;5.074;2023-08-12T10:58:45;23.00;70.70
44111;DHT22;29774;52.664;5.074;2023-08-12T11:01:18;23.00;70.70
44111;DHT22;29774;52.664;5.074;2023-08-12T11:03:45;23.00;70.70
44111;DHT22;29774;52.664;5.074;2023-08-12T11:06:11;23.00;71.00
44111;DHT22;29774;52.664;5.074;2023-08-12T11:08:41;23.10;71.10
44111;DHT22;29774;52.664;5.074;2023-08-12T11:11:22;23.20;70.50
44111;DHT22;29774;52.664;5.074;2023-08-12T11:13:53;23.30;70.10
44111;DHT22;29774;52.664;5.074;2023-08-12T11:16:31;23.30;72.20
44111;DHT22;29774;52.664;5.074;2023-08-12T11:19:00;23.40;69.70
44111;DHT22;29774;52.664;5.074;2023-08-12T11:21:26;23.30;70.20
44111;DHT22;29774;52.664;5.074;2023-08-12T11:23:54;23.30;70.60
44111;DHT22;29774;52.664;5.074;2023-08-12T11:26:23;23.30;69.90
44111;DHT22;29774;52.664;5.074;2023-08-12T11:28:49;23.30;70.60
44111;DHT22;29774;52.664;5.074;2023-08-12T11:31:15;23.20;70.00
44111;DHT22;29774;52.664;5.074;2023-08-12T11:33:41;23.20;70.90
44111;DHT22;29774;52.664;5.074;2023-08-12T11:36:07;23.40;69.40
44111;DHT22;29774;52.664;5.074;2023-08-12T11:38:33;23.30;69.70
44111;DHT22;29774;52.664;5.074;2023-08-12T11:41:01;23.30;69.80
44111;DHT22;29774;52.664;5.074;2023-08-12T11:43:28;23.30;69.90
44111;DHT22;29774;52.664;5.074;2023-08-12T11:45:55;23.30;69.80
44111;DHT22;29774;52.664;5.074;2023-08-12T11:48:21;23.30;70.00
44111;DHT22;29774;52.664;5.074;2023-08-12T11:50:48;23.30;69.80
44111;DHT22;29774;52.664;5.074;2023-08-12T11:53:14;23.40;69.60
44111;DHT22;29774;52.664;5.074;2023-08-12T11:55:40;23.50;69.70
44111;DHT22;29774;52.664;5.074;2023-08-12T11:58:06;23.30;69.60
44111;DHT22;29774;52.664;5.074;2023-08-12T12:00:33;23.30;69.70
44111;DHT22;29774;52.664;5.074;2023-08-12T12:02:59;23.50;69.40
44111;DHT22;29774;52.664;5.074;2023-08-12T12:05:28;23.40;69.30
44111;DHT22;29774;52.664;5.074;2023-08-12T12:07:59;23.30;69.60
44111;DHT22;29774;52.664;5.074;2023-08-12T12:10:32;23.30;69.50
44111;DHT22;29774;52.664;5.074;2023-08-12T12:13:00;23.50;69.00
44111;DHT22;29774;52.664;5.074;2023-08-12T12:15:25;23.40;69.00
44111;DHT22;29774;52.664;5.074;2023-08-12T12:17:51;23.60;68.70
44111;DHT22;29774;52.664;5.074;2023-08-12T12:20:17;23.70;68.40
44111;DHT22;29774;52.664;5.074;2023-08-12T12:22:44;23.60;68.70
44111;DHT22;29774;52.664;5.074;2023-08-12T12:25:12;23.50;68.90
44111;DHT22;29774;52.664;5.074;2023-08-12T12:27:39;23.50;68.80
44111;DHT22;29774;52.664;5.074;2023-08-12T12:30:07;23.50;69.00
44111;DHT22;29774;52.664;5.074;2023-08-12T12:32:33;23.50;69.00
44111;DHT22;29774;52.664;5.074;2023-08-12T12:34:59;23.50;69.00
44111;DHT22;29774;52.664;5.074;2023-08-12T12:37:25;23.70;68.30
44111;DHT22;29774;52.664;5.074;2023-08-12T12:39:51;23.70;68.10
44111;DHT22;29774;52.664;5.074;2023-08-12T12:42:17;23.70;68.20
44111;DHT22;29774;52.664;5.074;2023-08-12T12:44:42;24.00;67.30
44111;DHT22;29774;52.664;5.074;2023-08-12T12:47:08;23.70;68.20
44111;DHT22;29774;52.664;5.074;2023-08-12T12:49:35;23.70;68.20
44111;DHT22;29774;52.664;5.074;2023-08-12T12:52:01;23.50;68.90
44111;DHT22;29774;52.664;5.074;2023-08-12T12:54:27;23.70;68.40
44111;DHT22;29774;52.664;5.074;2023-08-12T12:56:52;23.70;68.20
44111;DHT22;29774;52.664;5.074;2023-08-12T12:59:18;23.50;68.80
44111;DHT22;29774;52.664;5.074;2023-08-12T13:01:44;23.50;68.90
44111;DHT22;29774;52.664;5.074;2023-08-12T13:04:10;23.50;68.50
44111;DHT22;29774;52.664;5.074;2023-08-12T13:06:35;23.70;68.40
44111;DHT22;29774;52.664;5.074;2023-08-12T13:09:01;23.70;68.00
44111;DHT22;29774;52.664;5.074;2023-08-12T13:11:29;23.60;68.40
44111;DHT22;29774;52.664;5.074;2023-08-12T13:13:55;23.70;67.90
44111;DHT22;29774;52.664;5.074;2023-08-12T13:16:20;23.80;67.40
44111;DHT22;29774;52.664;5.074;2023-08-12T13:18:46;23.70;67.90
44111;DHT22;29774;52.664;5.074;2023-08-12T13:21:12;23.80;67.80
44111;DHT22;29774;52.664;5.074;2023-08-12T13:23:37;23.60;68.60
44111;DHT22;29774;52.664;5.074;2023-08-12T13:26:03;23.60;68.40
44111;DHT22;29774;52.664;5.074;2023-08-12T13:28:29;23.70;68.30
44111;DHT22;29774;52.664;5.074;2023-08-12T13:30:55;23.70;68.30
44111;DHT22;29774;52.664;5.074;2023-08-12T13:33:21;23.70;68.30
44111;DHT22;29774;52.664;5.074;2023-08-12T13:35:46;23.90;67.10
44111;DHT22;29774;52.664;5.074;2023-08-12T13:38:12;23.80;67.70
44111;DHT22;29774;52.664;5.074;2023-08-12T13:40:38;23.70;68.30
44111;DHT22;29774;52.664;5.074;2023-08-12T13:43:03;23.70;68.00
44111;DHT22;29774;52.664;5.074;2023-08-12T13:45:29;23.70;67.80
44111;DHT22;29774;52.664;5.074;2023-08-12T13:47:55;23.80;67.80
44111;DHT22;29774;52.664;5.074;2023-08-12T13:50:20;23.80;67.70
44111;DHT22;29774;52.664;5.074;2023-08-12T13:52:46;23.90;67.70
44111;DHT22;29774;52.664;5.074;2023-08-12T13:55:13;23.70;67.90
44111;DHT22;29774;52.664;5.074;2023-08-12T13:57:38;23.70;68.10
44111;DHT22;29774;52.664;5.074;2023-08-12T14:00:04;23.70;68.20
44111;DHT22;29774;52.664;5.074;2023-08-12T14:02:35;23.60;68.10
44111;DHT22;29774;52.664;5.074;2023-08-12T14:05:02;23.60;68.60
44111;DHT22;29774;52.664;5.074;2023-08-12T14:07:28;23.50;68.90
44111;DHT22;29774;52.664;5.074;2023-08-12T14:09:53;23.50;67.90
44111;DHT22;29774;52.664;5.074;2023-08-12T14:12:19;23.50;68.80
44111;DHT22;29774;52.664;5.074;2023-08-12T14:14:44;23.50;68.80
44111;DHT22;29774;52.664;5.074;2023-08-12T14:17:11;23.50;68.80
44111;DHT22;29774;52.664;5.074;2023-08-12T14:19:39;23.50;68.70
44111;DHT22;29774;52.664;5.074;2023-08-12T14:22:05;23.50;68.80
44111;DHT22;29774;52.664;5.074;2023-08-12T14:24:31;23.50;68.60
44111;DHT22;29774;52.664;5.074;2023-08-12T14:26:56;23.50;68.80
44111;DHT22;29774;52.664;5.074;2023-08-12T14:29:22;23.50;68.70
44111;DHT22;29774;52.664;5.074;2023-08-12T14:31:48;23.50;68.70
44111;DHT22;29774;52.664;5.074;2023-08-12T14:34:13;23.40;69.10
44111;DHT22;29774;52.664;5.074;2023-08-12T14:36:39;23.40;69.10
44111;DHT22;29774;52.664;5.074;2023-08-12T14:39:05;23.40;68.90
44111;DHT22;29774;52.664;5.074;2023-08-12T14:41:30;23.40;69.20
44111;DHT22;29774;52.664;5.074;2023-08-12T14:43:56;23.40;69.10
44111;DHT22;29774;52.664;5.074;2023-08-12T14:46:21;23.40;69.10
44111;DHT22;29774;52.664;5.074;2023-08-12T14:48:47;23.40;69.10
44111;DHT22;29774;52.664;5.074;2023-08-12T14:51:13;23.40;69.30
44111;DHT22;29774;52.664;5.074;2023-08-12T14:53:38;23.40;69.00
44111;DHT22;29774;52.664;5.074;2023-08-12T14:56:04;23.40;69.20
44111;DHT22;29774;52.664;5.074;2023-08-12T14:58:29;23.40;69.30
44111;DHT22;29774;52.664;5.074;2023-08-12T15:00:55;23.40;68.80
44111;DHT22;29774;52.664;5.074;2023-08-12T15:03:22;23.30;68.30
44111;DHT22;29774;52.664;5.074;2023-08-12T15:05:47;23.30;69.40
44111;DHT22;29774;52.664;5.074;2023-08-12T15:08:13;23.40;69.10
44111;DHT22;29774;52.664;5.074;2023-08-12T15:10:39;23.40;69.00
44111;DHT22;29774;52.664;5.074;2023-08-12T15:13:04;23.40;69.20
44111;DHT22;29774;52.664;5.074;2023-08-12T15:15:30;23.40;69.30
44111;DHT22;29774;52.664;5.074;2023-08-12T15:17:55;23.30;69.00
44111;DHT22;29774;52.664;5.074;2023-08-12T15:20:21;23.30;69.00
44111;DHT22;29774;52.664;5.074;2023-08-12T15:22:47;23.30;69.10
44111;DHT22;29774;52.664;5.074;2023-08-12T15:25:12;23.40;69.40
44111;DHT22;29774;52.664;5.074;2023-08-12T15:27:38;23.30;69.10
44111;DHT22;29774;52.664;5.074;2023-08-12T15:30:04;23.40;69.30